Garden City, Louisiana
Current Conditions -  °F | °C
As of 1:15 PM on Thursday 30 Oct 2014 (Local Time) from KPTN Reporting Station
Clear Clear  
Wind Chill: 73°   Ceiling: Unl
Heat Index: 73°   Visibility: 10mi
Dew Point: 48°   Wind: 10mph
Humidity: 41%   Direction: 40°NE
Pressure: 30.1"   Gusts: NA
Location:  29.77°N, 91.47°W
Report Text: KPTN 301815Z AUTO 04009KT 10SM CLR 23/09 A3010 RMK AO1
Loading
Personal Weather Stations






























Interactive Weather Map
Tropical Storm Tracking
New forecast layout! Learn more

10-Day Weather Forecast

Advertisements
Track Severe Weather on mobile